createdAt,value
2022-12-03T07:20:04.930Z,47.03
2022-12-03T07:22:43.007Z,41.53
2022-12-03T07:25:23.535Z,43.93
2022-12-03T07:28:01.461Z,37.90
2022-12-03T07:30:38.567Z,37.10
2022-12-03T07:33:15.864Z,37.53
2022-12-03T07:35:55.442Z,35.30
2022-12-03T07:38:33.425Z,36.87
2022-12-03T07:41:11.213Z,36.30
2022-12-03T07:43:48.594Z,35.57
2022-12-03T07:46:25.852Z,38.10
2022-12-03T07:49:03.948Z,36.67
2022-12-03T07:51:44.565Z,39.00
2022-12-03T07:54:22.213Z,40.17
2022-12-03T07:57:01.659Z,37.27
2022-12-03T07:59:39.294Z,37.07
2022-12-03T08:02:21.216Z,35.60
2022-12-03T08:04:59.784Z,39.85
2022-12-03T08:07:39.752Z,39.47
2022-12-03T08:10:18.175Z,36.87
2022-12-03T08:12:55.077Z,36.93
2022-12-03T08:15:39.040Z,42.77
2022-12-03T08:18:33.769Z,38.70
2022-12-03T08:21:25.049Z,40.83
2022-12-03T08:24:14.894Z,36.33
2022-12-03T08:26:53.355Z,40.30
2022-12-03T08:29:30.299Z,42.37
2022-12-03T08:32:10.033Z,33.97
2022-12-03T08:34:48.099Z,37.13
2022-12-03T08:37:25.480Z,32.30
2022-12-03T08:40:04.867Z,32.23
2022-12-03T08:42:44.935Z,35.33
2022-12-03T08:45:43.547Z,35.63
2022-12-03T08:48:37.165Z,32.60
2022-12-03T08:51:24.171Z,37.13
2022-12-03T08:54:23.234Z,34.93
2022-12-03T08:57:04.339Z,33.07
2022-12-03T08:59:45.463Z,37.30
2022-12-03T09:02:32.120Z,37.23
2022-12-03T09:05:19.588Z,38.13
2022-12-03T09:07:56.471Z,40.57
2022-12-03T09:10:33.716Z,38.60
2022-12-03T09:13:13.105Z,39.80
2022-12-03T09:15:50.347Z,35.97
2022-12-03T09:18:27.079Z,34.37
2022-12-03T09:21:04.463Z,35.77
2022-12-03T09:23:41.453Z,35.80
2022-12-03T09:26:18.767Z,35.53
2022-12-03T09:28:58.493Z,40.17
2022-12-03T09:31:36.221Z,36.47
2022-12-03T09:34:13.632Z,35.90
2022-12-03T09:36:50.827Z,35.63
2022-12-03T09:39:27.647Z,35.33
2022-12-03T09:42:05.456Z,36.97
2022-12-03T09:44:45.058Z,41.30
2022-12-03T09:47:22.656Z,41.20
2022-12-03T09:50:01.373Z,35.77
2022-12-03T09:52:39.087Z,37.40
2022-12-03T09:55:21.117Z,35.77
2022-12-03T09:58:01.164Z,39.63
2022-12-03T10:00:40.665Z,36.30
2022-12-03T10:03:26.533Z,38.50
2022-12-03T10:06:06.736Z,37.53
2022-12-03T10:08:43.985Z,43.63
2022-12-03T10:11:23.458Z,44.67
2022-12-03T10:14:02.776Z,41.37
2022-12-03T10:16:43.307Z,43.93
2022-12-03T10:19:27.359Z,41.40
2022-12-03T10:22:04.169Z,44.63
2022-12-03T10:24:42.967Z,41.97
2022-12-03T10:27:32.586Z,44.27
2022-12-03T10:30:22.637Z,44.30
2022-12-03T10:33:02.943Z,40.33
2022-12-03T10:35:43.905Z,39.07
2022-12-03T10:38:25.545Z,40.70
2022-12-03T10:41:26.106Z,43.00
2022-12-03T10:44:18.946Z,42.73
2022-12-03T10:47:11.833Z,39.75
2022-12-03T10:50:07.297Z,43.20
2022-12-03T10:52:44.687Z,44.20
2022-12-03T10:55:22.989Z,43.47
2022-12-03T10:58:00.739Z,40.27
2022-12-03T11:00:38.228Z,41.60
2022-12-03T11:03:24.517Z,46.67
2022-12-03T11:06:05.942Z,44.50
2022-12-03T11:08:52.982Z,42.80
2022-12-03T11:11:34.601Z,45.63
2022-12-03T11:14:21.228Z,47.40
2022-12-03T11:17:14.405Z,48.77
2022-12-03T11:19:52.998Z,45.50
2022-12-03T11:22:47.994Z,54.67
2022-12-03T11:25:51.139Z,47.97
2022-12-03T11:28:54.684Z,53.93
2022-12-03T11:31:44.766Z,42.60
2022-12-03T11:34:53.019Z,42.60
2022-12-03T11:37:33.953Z,44.00
2022-12-03T11:40:39.744Z,45.43
2022-12-03T11:43:17.346Z,40.03
2022-12-03T11:45:57.269Z,37.70
2022-12-03T11:48:37.262Z,39.27
2022-12-03T11:51:19.255Z,41.40
2022-12-03T11:54:02.715Z,38.73
2022-12-03T11:56:39.435Z,46.60
2022-12-03T11:59:17.756Z,41.10
2022-12-03T12:01:54.677Z,39.50
2022-12-03T12:04:38.184Z,42.57
2022-12-03T12:07:15.024Z,39.33
2022-12-03T12:09:58.031Z,35.00
2022-12-03T12:12:49.003Z,37.88
2022-12-03T12:15:47.305Z,36.43
2022-12-03T12:18:41.863Z,37.33
2022-12-03T12:21:48.202Z,36.40
2022-12-03T12:24:38.517Z,39.13
2022-12-03T12:27:20.563Z,39.97
2022-12-03T12:30:01.511Z,35.40
2022-12-03T12:32:48.089Z,43.47
2022-12-03T12:35:32.892Z,39.10
2022-12-03T12:38:20.641Z,37.67
2022-12-03T12:40:57.551Z,37.67
2022-12-03T12:43:39.938Z,46.23
2022-12-03T12:46:46.727Z,41.77
2022-12-03T12:49:21.937Z,39.07
2022-12-03T12:52:01.497Z,36.30
2022-12-03T12:54:41.043Z,37.90
2022-12-03T12:57:26.148Z,35.80
2022-12-03T13:00:09.927Z,37.93
2022-12-03T13:02:50.673Z,42.77
2022-12-03T13:05:29.879Z,46.43
2022-12-03T13:08:10.385Z,41.47
2022-12-03T13:10:47.738Z,39.57
2022-12-03T13:13:43.307Z,42.93
2022-12-03T13:16:37.039Z,39.13
2022-12-03T13:19:26.169Z,39.60
2022-12-03T13:22:14.077Z,41.17
2022-12-03T13:24:53.419Z,35.40
2022-12-03T13:27:33.027Z,41.97
2022-12-03T13:30:20.367Z,40.73
2022-12-03T13:33:02.478Z,39.87
2022-12-03T13:35:40.375Z,36.07
2022-12-03T13:38:20.436Z,41.13
2022-12-03T13:41:04.992Z,43.87
2022-12-03T13:43:44.587Z,42.50
2022-12-03T13:46:22.554Z,42.07
2022-12-03T13:49:02.887Z,41.17
2022-12-03T13:51:43.127Z,39.07
2022-12-03T13:54:26.026Z,39.90
2022-12-03T13:57:06.251Z,39.67
2022-12-03T13:59:43.658Z,38.03
2022-12-03T14:02:20.582Z,39.27
2022-12-03T14:05:00.934Z,38.07
2022-12-03T14:07:37.960Z,40.50
2022-12-03T14:10:17.532Z,35.30
2022-12-03T14:12:54.362Z,36.83
2022-12-03T14:15:31.609Z,43.70
2022-12-03T14:18:09.241Z,57.17
2022-12-03T14:20:49.322Z,51.53
2022-12-03T14:23:26.211Z,50.70
2022-12-03T14:26:04.043Z,44.87
2022-12-03T14:28:41.423Z,41.97
2022-12-03T14:31:18.669Z,40.27
2022-12-03T14:33:56.259Z,39.37
2022-12-03T14:36:36.050Z,41.23
2022-12-03T14:39:13.447Z,41.77
2022-12-03T14:42:03.090Z,39.17
2022-12-03T14:44:40.250Z,44.93
2022-12-03T14:47:19.253Z,42.07
2022-12-03T14:49:56.451Z,44.37
2022-12-03T14:52:37.078Z,43.13
2022-12-03T14:55:14.023Z,36.73
2022-12-03T14:57:51.299Z,39.50
2022-12-03T15:00:28.280Z,38.70
2022-12-03T15:03:05.440Z,44.03
2022-12-03T15:05:42.906Z,37.17
2022-12-03T15:08:24.827Z,44.00
2022-12-03T15:11:01.956Z,42.63
2022-12-03T15:13:44.987Z,39.13
2022-12-03T15:16:24.088Z,35.57
2022-12-03T15:19:04.386Z,46.63
2022-12-03T15:21:41.196Z,37.63
2022-12-03T15:24:21.091Z,41.47
2022-12-03T15:26:57.991Z,42.10
2022-12-03T15:29:35.549Z,45.30
2022-12-03T15:32:12.321Z,44.00
2022-12-03T15:34:51.930Z,41.77
2022-12-03T15:37:30.040Z,41.77
2022-12-03T15:40:12.281Z,42.20
2022-12-03T15:42:54.205Z,39.20
2022-12-03T15:45:34.765Z,41.57
2022-12-03T15:48:14.074Z,42.20
2022-12-03T15:50:51.456Z,44.53
2022-12-03T15:53:28.988Z,42.53
2022-12-03T15:56:10.254Z,41.23
2022-12-03T15:58:47.663Z,42.93
2022-12-03T16:01:25.961Z,43.00
2022-12-03T16:04:09.939Z,47.60
2022-12-03T16:06:52.495Z,50.67
2022-12-03T16:09:31.316Z,54.43
2022-12-03T16:12:12.176Z,56.00
2022-12-03T16:14:50.046Z,54.13
2022-12-03T16:17:27.715Z,77.87
2022-12-03T16:20:06.843Z,84.97
2022-12-03T16:22:44.877Z,78.93
2022-12-03T16:25:26.715Z,58.93
2022-12-03T16:28:06.787Z,62.60
2022-12-03T16:30:49.385Z,62.63
2022-12-03T16:33:34.386Z,53.37
2022-12-03T16:36:13.624Z,49.83
2022-12-03T16:38:54.644Z,61.37
2022-12-03T16:41:33.794Z,55.63
2022-12-03T16:44:31.201Z,55.33
2022-12-03T16:47:10.045Z,41.93
2022-12-03T16:49:48.260Z,47.67
2022-12-03T16:52:25.505Z,49.23
2022-12-03T16:55:04.746Z,50.37
2022-12-03T16:57:41.748Z,50.87
2022-12-03T17:00:22.977Z,56.43
2022-12-03T17:02:59.996Z,56.03
2022-12-03T17:05:37.700Z,56.43
2022-12-03T17:08:15.221Z,56.07
2022-12-03T17:10:52.935Z,55.60
2022-12-03T17:13:30.076Z,56.33
2022-12-03T17:16:10.412Z,58.23
2022-12-03T17:18:47.214Z,49.33
2022-12-03T17:21:24.437Z,51.23
2022-12-03T17:24:01.511Z,57.77
2022-12-03T17:26:38.751Z,58.20
2022-12-03T17:29:15.677Z,45.07
2022-12-03T17:31:56.152Z,54.13
2022-12-03T17:34:33.421Z,50.33
2022-12-03T17:37:10.959Z,45.77
2022-12-03T17:39:47.861Z,53.20
2022-12-03T17:42:25.057Z,47.03
2022-12-03T17:45:01.858Z,50.43
2022-12-03T17:47:42.637Z,50.17
2022-12-03T17:50:20.728Z,52.33
2022-12-03T17:52:58.922Z,49.07
2022-12-03T17:55:44.048Z,52.83
2022-12-03T17:58:24.083Z,54.37
2022-12-03T18:01:03.067Z,53.93
2022-12-03T18:03:45.970Z,53.17
2022-12-03T18:06:24.329Z,52.43
2022-12-03T18:09:04.036Z,52.37
2022-12-03T18:11:41.677Z,51.93
2022-12-03T18:14:20.003Z,54.70
2022-12-03T18:16:57.212Z,49.63
2022-12-03T18:19:39.085Z,51.23
2022-12-03T18:22:17.720Z,52.60
2022-12-03T18:24:55.926Z,55.37
2022-12-03T18:27:33.601Z,48.73
2022-12-03T18:30:12.706Z,48.40
2022-12-03T18:32:51.505Z,44.03
2022-12-03T18:35:31.815Z,52.07
2022-12-03T18:38:08.868Z,55.67
2022-12-03T18:40:48.555Z,44.97
2022-12-03T18:43:26.285Z,56.53
2022-12-03T18:46:04.801Z,61.30
2022-12-03T18:48:42.581Z,47.10
2022-12-03T18:51:25.850Z,48.20
2022-12-03T18:54:04.136Z,58.03
2022-12-03T18:56:44.450Z,48.97
2022-12-03T18:59:21.780Z,56.40
2022-12-03T19:01:59.901Z,58.17
2022-12-03T19:04:37.885Z,50.40
2022-12-03T19:07:19.049Z,50.63
2022-12-03T19:10:00.984Z,61.63
2022-12-03T19:12:38.770Z,50.40
2022-12-03T19:15:19.538Z,57.50
2022-12-03T19:17:57.189Z,61.17
2022-12-03T19:20:35.139Z,56.83
2022-12-03T19:23:15.471Z,53.97
2022-12-03T19:26:00.519Z,58.50
2022-12-03T19:28:39.262Z,59.20
2022-12-03T19:31:19.852Z,55.07
2022-12-03T19:33:58.044Z,57.87
2022-12-03T19:36:36.299Z,54.70
2022-12-03T19:39:21.610Z,60.37
2022-12-03T19:42:01.423Z,57.93
2022-12-03T19:44:40.829Z,56.10
2022-12-03T19:47:18.130Z,52.50
2022-12-03T19:49:57.569Z,60.30
2022-12-03T19:52:40.140Z,49.00
2022-12-03T19:55:20.798Z,51.93
2022-12-03T19:57:58.470Z,55.00
2022-12-03T20:00:37.710Z,65.67
2022-12-03T20:03:15.410Z,62.13
2022-12-03T20:05:53.719Z,54.27
2022-12-03T20:08:31.451Z,59.13
2022-12-03T20:11:18.198Z,56.67
2022-12-03T20:14:07.869Z,56.10
2022-12-03T20:16:46.908Z,61.50
2022-12-03T20:19:25.168Z,53.87
2022-12-03T20:22:03.837Z,50.37
2022-12-03T20:24:41.557Z,65.47
2022-12-03T20:27:23.143Z,60.63
2022-12-03T20:30:00.878Z,53.63
2022-12-03T20:32:45.045Z,63.40
2022-12-03T20:35:25.781Z,52.27
2022-12-03T20:38:04.992Z,62.47
2022-12-03T20:40:42.668Z,58.73
2022-12-03T20:43:23.427Z,58.37
2022-12-03T20:46:02.853Z,61.67
2022-12-03T20:48:41.872Z,59.93
2022-12-03T20:51:21.074Z,55.63
2022-12-03T20:54:00.497Z,64.87
2022-12-03T20:56:42.772Z,58.73
2022-12-03T20:59:23.265Z,58.63
2022-12-03T21:02:04.035Z,64.63
2022-12-03T21:04:45.327Z,62.03
2022-12-03T21:07:23.191Z,61.07
2022-12-03T21:10:00.562Z,53.80
2022-12-03T21:12:38.211Z,61.77
2022-12-03T21:15:18.383Z,61.10
2022-12-03T21:17:56.256Z,54.57
2022-12-03T21:20:34.165Z,60.57
2022-12-03T21:23:12.256Z,63.07
2022-12-03T21:25:49.873Z,63.63
2022-12-03T21:28:27.108Z,57.43
2022-12-03T21:31:10.707Z,51.67
2022-12-03T21:33:48.166Z,54.42
2022-12-03T21:36:25.834Z,64.53
2022-12-03T21:39:03.464Z,57.33
2022-12-03T21:42:34.749Z,57.93
2022-12-03T21:44:44.151Z,57.63
2022-12-03T21:47:37.038Z,57.80
2022-12-03T21:50:18.701Z,58.27
2022-12-03T21:52:56.472Z,49.47
2022-12-03T21:55:34.923Z,59.23
2022-12-03T21:58:14.529Z,52.50
2022-12-03T22:00:56.731Z,53.80
2022-12-03T22:03:37.232Z,57.77
2022-12-03T22:06:15.281Z,61.33
2022-12-03T22:08:54.346Z,57.20
2022-12-03T22:11:31.683Z,55.90
2022-12-03T22:14:12.625Z,61.00
2022-12-03T22:16:49.526Z,54.77
2022-12-03T22:19:29.936Z,53.23
2022-12-03T22:22:06.843Z,51.03
2022-12-03T22:24:46.015Z,55.30
2022-12-03T22:27:23.857Z,57.33
2022-12-03T22:30:00.952Z,63.10
2022-12-03T22:32:37.663Z,57.93
2022-12-03T22:35:17.653Z,55.87
2022-12-03T22:37:54.392Z,55.87
2022-12-03T22:40:31.723Z,55.80
2022-12-03T22:43:08.523Z,58.73
2022-12-03T22:45:46.170Z,59.40
2022-12-03T22:48:23.868Z,60.07
2022-12-03T22:51:06.150Z,52.63
2022-12-03T22:53:45.556Z,53.60
2022-12-03T22:56:26.278Z,59.60
2022-12-03T22:59:05.373Z,63.23
2022-12-03T23:01:44.313Z,61.90
2022-12-03T23:04:21.354Z,53.43
2022-12-03T23:07:01.287Z,68.30
2022-12-03T23:09:38.022Z,61.50
